sensor_id;sensor_type;location;lat;lon;timestamp;P1;durP1;ratioP1;P2;durP2;ratioP2
10100;SDS011;5090;51.258;4.436;2022-08-04T00:02:12;15.25;;;2.72;;
10100;SDS011;5090;51.258;4.436;2022-08-04T00:04:42;2.60;;;2.28;;
10100;SDS011;5090;51.258;4.436;2022-08-04T00:07:13;10.45;;;2.72;;
10100;SDS011;5090;51.258;4.436;2022-08-04T00:09:38;4.55;;;2.50;;
10100;SDS011;5090;51.258;4.436;2022-08-04T00:12:04;6.57;;;2.50;;
10100;SDS011;5090;51.258;4.436;2022-08-04T00:14:34;7.70;;;2.20;;
10100;SDS011;5090;51.258;4.436;2022-08-04T00:17:03;7.78;;;2.75;;
10100;SDS011;5090;51.258;4.436;2022-08-04T00:19:31;9.00;;;2.58;;
10100;SDS011;5090;51.258;4.436;2022-08-04T00:21:59;5.68;;;2.20;;
10100;SDS011;5090;51.258;4.436;2022-08-04T00:24:30;8.50;;;2.50;;
10100;SDS011;5090;51.258;4.436;2022-08-04T00:26:58;7.43;;;3.03;;
10100;SDS011;5090;51.258;4.436;2022-08-04T00:29:27;5.78;;;2.30;;
10100;SDS011;5090;51.258;4.436;2022-08-04T00:31:55;4.57;;;2.33;;
10100;SDS011;5090;51.258;4.436;2022-08-04T00:34:25;6.90;;;2.42;;
10100;SDS011;5090;51.258;4.436;2022-08-04T00:36:52;5.30;;;2.80;;
10100;SDS011;5090;51.258;4.436;2022-08-04T00:39:20;7.05;;;2.30;;
10100;SDS011;5090;51.258;4.436;2022-08-04T00:41:51;4.80;;;2.45;;
10100;SDS011;5090;51.258;4.436;2022-08-04T00:44:43;6.32;;;3.03;;
10100;SDS011;5090;51.258;4.436;2022-08-04T00:47:14;5.20;;;2.58;;
10100;SDS011;5090;51.258;4.436;2022-08-04T00:52:16;6.12;;;3.28;;
10100;SDS011;5090;51.258;4.436;2022-08-04T00:57:22;5.82;;;2.72;;
10100;SDS011;5090;51.258;4.436;2022-08-04T01:02:36;5.85;;;2.55;;
10100;SDS011;5090;51.258;4.436;2022-08-04T01:05:05;2.95;;;2.30;;
10100;SDS011;5090;51.258;4.436;2022-08-04T01:07:42;5.30;;;1.98;;
10100;SDS011;5090;51.258;4.436;2022-08-04T01:10:09;6.15;;;2.55;;
10100;SDS011;5090;51.258;4.436;2022-08-04T01:13:11;7.18;;;2.55;;
10100;SDS011;5090;51.258;4.436;2022-08-04T01:15:32;6.40;;;2.65;;
10100;SDS011;5090;51.258;4.436;2022-08-04T01:18:03;6.50;;;2.53;;
10100;SDS011;5090;51.258;4.436;2022-08-04T01:20:29;8.02;;;2.80;;
10100;SDS011;5090;51.258;4.436;2022-08-04T01:23:03;5.90;;;2.75;;
10100;SDS011;5090;51.258;4.436;2022-08-04T01:25:47;5.18;;;2.67;;
10100;SDS011;5090;51.258;4.436;2022-08-04T01:28:14;6.30;;;2.30;;
10100;SDS011;5090;51.258;4.436;2022-08-04T01:30:39;7.15;;;3.08;;
10100;SDS011;5090;51.258;4.436;2022-08-04T01:33:08;7.22;;;2.90;;
10100;SDS011;5090;51.258;4.436;2022-08-04T01:35:43;7.65;;;3.00;;
10100;SDS011;5090;51.258;4.436;2022-08-04T01:38:27;6.30;;;2.62;;
10100;SDS011;5090;51.258;4.436;2022-08-04T01:40:54;6.65;;;2.70;;
10100;SDS011;5090;51.258;4.436;2022-08-04T01:43:20;10.80;;;3.47;;
10100;SDS011;5090;51.258;4.436;2022-08-04T01:45:50;4.78;;;2.53;;
10100;SDS011;5090;51.258;4.436;2022-08-04T01:48:21;6.47;;;2.83;;
10100;SDS011;5090;51.258;4.436;2022-08-04T01:50:46;6.37;;;2.70;;
10100;SDS011;5090;51.258;4.436;2022-08-04T01:53:14;8.38;;;3.05;;
10100;SDS011;5090;51.258;4.436;2022-08-04T01:55:42;5.97;;;2.17;;
10100;SDS011;5090;51.258;4.436;2022-08-04T01:58:10;9.00;;;3.00;;
10100;SDS011;5090;51.258;4.436;2022-08-04T02:00:39;5.00;;;3.08;;
10100;SDS011;5090;51.258;4.436;2022-08-04T02:03:07;4.47;;;2.70;;
10100;SDS011;5090;51.258;4.436;2022-08-04T02:05:35;4.07;;;2.92;;
10100;SDS011;5090;51.258;4.436;2022-08-04T02:08:08;8.43;;;3.08;;
10100;SDS011;5090;51.258;4.436;2022-08-04T02:10:42;10.20;;;3.15;;
10100;SDS011;5090;51.258;4.436;2022-08-04T02:13:06;7.55;;;3.65;;
10100;SDS011;5090;51.258;4.436;2022-08-04T02:15:41;9.35;;;3.78;;
10100;SDS011;5090;51.258;4.436;2022-08-04T02:18:14;6.55;;;2.85;;
10100;SDS011;5090;51.258;4.436;2022-08-04T02:20:42;7.32;;;2.90;;
10100;SDS011;5090;51.258;4.436;2022-08-04T02:23:08;8.10;;;3.20;;
10100;SDS011;5090;51.258;4.436;2022-08-04T02:25:38;9.32;;;3.12;;
10100;SDS011;5090;51.258;4.436;2022-08-04T02:28:10;12.23;;;3.65;;
10100;SDS011;5090;51.258;4.436;2022-08-04T02:30:36;6.37;;;3.10;;
10100;SDS011;5090;51.258;4.436;2022-08-04T02:33:02;6.82;;;3.65;;
10100;SDS011;5090;51.258;4.436;2022-08-04T02:35:32;6.65;;;3.22;;
10100;SDS011;5090;51.258;4.436;2022-08-04T02:38:10;6.55;;;2.97;;
10100;SDS011;5090;51.258;4.436;2022-08-04T02:40:36;10.20;;;3.47;;
10100;SDS011;5090;51.258;4.436;2022-08-04T02:43:04;8.15;;;3.55;;
10100;SDS011;5090;51.258;4.436;2022-08-04T02:45:34;9.90;;;3.35;;
10100;SDS011;5090;51.258;4.436;2022-08-04T02:48:00;8.48;;;3.30;;
10100;SDS011;5090;51.258;4.436;2022-08-04T02:50:30;7.47;;;3.20;;
10100;SDS011;5090;51.258;4.436;2022-08-04T02:52:57;8.30;;;3.87;;
10100;SDS011;5090;51.258;4.436;2022-08-04T02:55:26;11.60;;;4.62;;
10100;SDS011;5090;51.258;4.436;2022-08-04T02:57:53;5.87;;;3.35;;
10100;SDS011;5090;51.258;4.436;2022-08-04T03:00:22;11.63;;;3.40;;
10100;SDS011;5090;51.258;4.436;2022-08-04T03:02:59;10.88;;;3.78;;
10100;SDS011;5090;51.258;4.436;2022-08-04T03:05:25;10.73;;;3.65;;
10100;SDS011;5090;51.258;4.436;2022-08-04T03:07:56;8.15;;;3.85;;
10100;SDS011;5090;51.258;4.436;2022-08-04T03:10:36;11.15;;;3.97;;
10100;SDS011;5090;51.258;4.436;2022-08-04T03:13:07;10.32;;;3.60;;
10100;SDS011;5090;51.258;4.436;2022-08-04T03:16:08;6.65;;;3.78;;
10100;SDS011;5090;51.258;4.436;2022-08-04T03:21:03;11.00;;;3.97;;
10100;SDS011;5090;51.258;4.436;2022-08-04T03:23:33;10.68;;;4.07;;
10100;SDS011;5090;51.258;4.436;2022-08-04T03:26:08;6.30;;;3.80;;
10100;SDS011;5090;51.258;4.436;2022-08-04T03:28:40;13.05;;;4.10;;
10100;SDS011;5090;51.258;4.436;2022-08-04T03:31:09;7.93;;;4.22;;
10100;SDS011;5090;51.258;4.436;2022-08-04T03:33:39;11.02;;;4.25;;
10100;SDS011;5090;51.258;4.436;2022-08-04T03:36:46;8.90;;;4.10;;
10100;SDS011;5090;51.258;4.436;2022-08-04T03:39:28;8.80;;;4.47;;
10100;SDS011;5090;51.258;4.436;2022-08-04T03:41:38;9.35;;;4.47;;
10100;SDS011;5090;51.258;4.436;2022-08-04T03:49:48;7.57;;;4.40;;
10100;SDS011;5090;51.258;4.436;2022-08-04T03:54:42;6.22;;;4.07;;
10100;SDS011;5090;51.258;4.436;2022-08-04T03:58:16;8.73;;;4.28;;
10100;SDS011;5090;51.258;4.436;2022-08-04T03:59:56;11.30;;;4.55;;
10100;SDS011;5090;51.258;4.436;2022-08-04T04:04:59;7.57;;;4.28;;
10100;SDS011;5090;51.258;4.436;2022-08-04T04:07:35;10.52;;;4.37;;
10100;SDS011;5090;51.258;4.436;2022-08-04T04:15:35;10.25;;;3.83;;
10100;SDS011;5090;51.258;4.436;2022-08-04T04:18:09;8.65;;;3.90;;
10100;SDS011;5090;51.258;4.436;2022-08-04T04:21:12;9.90;;;3.65;;
10100;SDS011;5090;51.258;4.436;2022-08-04T04:23:43;7.85;;;3.55;;
10100;SDS011;5090;51.258;4.436;2022-08-04T04:26:06;3.50;;;3.20;;
10100;SDS011;5090;51.258;4.436;2022-08-04T04:28:46;10.25;;;3.70;;
10100;SDS011;5090;51.258;4.436;2022-08-04T04:31:18;6.50;;;3.70;;
10100;SDS011;5090;51.258;4.436;2022-08-04T04:33:53;12.13;;;3.30;;
10100;SDS011;5090;51.258;4.436;2022-08-04T04:36:24;9.73;;;3.28;;
10100;SDS011;5090;51.258;4.436;2022-08-04T04:38:56;9.52;;;2.95;;
10100;SDS011;5090;51.258;4.436;2022-08-04T04:41:27;8.00;;;2.97;;
10100;SDS011;5090;51.258;4.436;2022-08-04T04:43:56;10.65;;;3.08;;
10100;SDS011;5090;51.258;4.436;2022-08-04T04:46:25;8.85;;;2.65;;
10100;SDS011;5090;51.258;4.436;2022-08-04T04:48:52;11.45;;;2.80;;
10100;SDS011;5090;51.258;4.436;2022-08-04T04:51:22;7.82;;;2.83;;
10100;SDS011;5090;51.258;4.436;2022-08-04T04:53:53;7.57;;;2.78;;
10100;SDS011;5090;51.258;4.436;2022-08-04T04:56:29;4.32;;;2.00;;
10100;SDS011;5090;51.258;4.436;2022-08-04T04:58:55;11.55;;;2.50;;
10100;SDS011;5090;51.258;4.436;2022-08-04T05:01:29;10.95;;;2.58;;
10100;SDS011;5090;51.258;4.436;2022-08-04T05:04:02;8.43;;;2.65;;
10100;SDS011;5090;51.258;4.436;2022-08-04T05:06:28;7.72;;;2.33;;
10100;SDS011;5090;51.258;4.436;2022-08-04T05:09:07;9.65;;;2.42;;
10100;SDS011;5090;51.258;4.436;2022-08-04T05:11:37;11.25;;;2.65;;
10100;SDS011;5090;51.258;4.436;2022-08-04T05:14:03;9.73;;;2.15;;
10100;SDS011;5090;51.258;4.436;2022-08-04T05:16:31;8.50;;;2.47;;
10100;SDS011;5090;51.258;4.436;2022-08-04T05:21:36;5.20;;;2.28;;
10100;SDS011;5090;51.258;4.436;2022-08-04T05:24:01;7.90;;;2.60;;
10100;SDS011;5090;51.258;4.436;2022-08-04T05:26:30;5.00;;;2.35;;
10100;SDS011;5090;51.258;4.436;2022-08-04T05:28:58;8.43;;;2.10;;
10100;SDS011;5090;51.258;4.436;2022-08-04T05:31:27;8.38;;;2.40;;
10100;SDS011;5090;51.258;4.436;2022-08-04T05:33:57;3.97;;;2.22;;
10100;SDS011;5090;51.258;4.436;2022-08-04T05:36:26;4.72;;;1.98;;
10100;SDS011;5090;51.258;4.436;2022-08-04T05:38:53;12.75;;;2.15;;
10100;SDS011;5090;51.258;4.436;2022-08-04T05:41:20;11.43;;;1.90;;
10100;SDS011;5090;51.258;4.436;2022-08-04T05:43:48;11.07;;;2.35;;
10100;SDS011;5090;51.258;4.436;2022-08-04T05:46:17;12.55;;;2.40;;
10100;SDS011;5090;51.258;4.436;2022-08-04T05:48:46;13.50;;;2.65;;
10100;SDS011;5090;51.258;4.436;2022-08-04T05:51:14;13.10;;;2.30;;
10100;SDS011;5090;51.258;4.436;2022-08-04T05:53:42;10.75;;;2.50;;
10100;SDS011;5090;51.258;4.436;2022-08-04T05:56:12;7.25;;;2.62;;
10100;SDS011;5090;51.258;4.436;2022-08-04T05:58:40;15.02;;;3.08;;
10100;SDS011;5090;51.258;4.436;2022-08-04T06:01:08;7.28;;;2.55;;
10100;SDS011;5090;51.258;4.436;2022-08-04T06:03:36;10.05;;;2.53;;
10100;SDS011;5090;51.258;4.436;2022-08-04T06:06:04;12.35;;;2.28;;
10100;SDS011;5090;51.258;4.436;2022-08-04T06:08:33;8.75;;;2.55;;
10100;SDS011;5090;51.258;4.436;2022-08-04T06:11:03;6.78;;;2.80;;
10100;SDS011;5090;51.258;4.436;2022-08-04T06:13:32;5.82;;;2.40;;
10100;SDS011;5090;51.258;4.436;2022-08-04T06:15:58;11.07;;;2.33;;
10100;SDS011;5090;51.258;4.436;2022-08-04T06:18:28;10.40;;;1.83;;
10100;SDS011;5090;51.258;4.436;2022-08-04T06:20:55;9.50;;;2.28;;
10100;SDS011;5090;51.258;4.436;2022-08-04T06:23:23;9.50;;;2.12;;
10100;SDS011;5090;51.258;4.436;2022-08-04T06:25:52;9.15;;;1.98;;
10100;SDS011;5090;51.258;4.436;2022-08-04T06:28:20;10.27;;;1.77;;
10100;SDS011;5090;51.258;4.436;2022-08-04T06:30:48;8.90;;;2.40;;
10100;SDS011;5090;51.258;4.436;2022-08-04T06:33:16;10.35;;;1.83;;
10100;SDS011;5090;51.258;4.436;2022-08-04T06:35:51;10.93;;;1.98;;
10100;SDS011;5090;51.258;4.436;2022-08-04T06:38:21;8.82;;;1.83;;
10100;SDS011;5090;51.258;4.436;2022-08-04T06:40:49;12.00;;;2.50;;
10100;SDS011;5090;51.258;4.436;2022-08-04T06:43:17;8.95;;;1.95;;
10100;SDS011;5090;51.258;4.436;2022-08-04T06:45:45;8.52;;;1.80;;
10100;SDS011;5090;51.258;4.436;2022-08-04T06:48:15;12.07;;;2.42;;
10100;SDS011;5090;51.258;4.436;2022-08-04T06:50:42;9.43;;;2.62;;
10100;SDS011;5090;51.258;4.436;2022-08-04T06:53:10;5.68;;;2.50;;
10100;SDS011;5090;51.258;4.436;2022-08-04T06:55:39;10.88;;;2.40;;
10100;SDS011;5090;51.258;4.436;2022-08-04T06:58:07;6.80;;;2.12;;
10100;SDS011;5090;51.258;4.436;2022-08-04T07:00:36;8.15;;;2.87;;
10100;SDS011;5090;51.258;4.436;2022-08-04T07:03:04;8.55;;;3.22;;
10100;SDS011;5090;51.258;4.436;2022-08-04T07:05:33;9.30;;;2.53;;
10100;SDS011;5090;51.258;4.436;2022-08-04T07:08:01;8.98;;;3.05;;
10100;SDS011;5090;51.258;4.436;2022-08-04T07:10:33;7.72;;;2.35;;
10100;SDS011;5090;51.258;4.436;2022-08-04T07:13:03;7.07;;;2.95;;
10100;SDS011;5090;51.258;4.436;2022-08-04T07:15:32;9.18;;;2.75;;
10100;SDS011;5090;51.258;4.436;2022-08-04T07:18:00;7.37;;;2.40;;
10100;SDS011;5090;51.258;4.436;2022-08-04T07:26:05;7.25;;;2.60;;
10100;SDS011;5090;51.258;4.436;2022-08-04T07:28:39;10.95;;;2.67;;
10100;SDS011;5090;51.258;4.436;2022-08-04T07:34:16;7.20;;;2.35;;
10100;SDS011;5090;51.258;4.436;2022-08-04T07:36:44;7.15;;;2.65;;
10100;SDS011;5090;51.258;4.436;2022-08-04T07:41:54;7.57;;;2.95;;
10100;SDS011;5090;51.258;4.436;2022-08-04T07:44:29;8.60;;;3.50;;
10100;SDS011;5090;51.258;4.436;2022-08-04T07:47:00;10.43;;;3.47;;
10100;SDS011;5090;51.258;4.436;2022-08-04T07:49:29;8.73;;;2.78;;
10100;SDS011;5090;51.258;4.436;2022-08-04T07:52:00;7.22;;;3.17;;
10100;SDS011;5090;51.258;4.436;2022-08-04T07:54:28;9.15;;;3.08;;
10100;SDS011;5090;51.258;4.436;2022-08-04T07:56:57;7.85;;;2.65;;
10100;SDS011;5090;51.258;4.436;2022-08-04T07:59:26;11.68;;;3.83;;
10100;SDS011;5090;51.258;4.436;2022-08-04T08:01:55;7.87;;;3.22;;
10100;SDS011;5090;51.258;4.436;2022-08-04T08:04:22;7.00;;;3.00;;
10100;SDS011;5090;51.258;4.436;2022-08-04T08:06:51;11.32;;;2.97;;
10100;SDS011;5090;51.258;4.436;2022-08-04T08:09:19;5.75;;;3.17;;
10100;SDS011;5090;51.258;4.436;2022-08-04T08:11:48;11.63;;;3.33;;
10100;SDS011;5090;51.258;4.436;2022-08-04T08:14:16;8.90;;;3.53;;
10100;SDS011;5090;51.258;4.436;2022-08-04T08:16:44;8.30;;;3.25;;
10100;SDS011;5090;51.258;4.436;2022-08-04T08:19:12;8.98;;;3.72;;
10100;SDS011;5090;51.258;4.436;2022-08-04T08:21:41;8.93;;;3.30;;
10100;SDS011;5090;51.258;4.436;2022-08-04T08:24:09;5.95;;;3.20;;
10100;SDS011;5090;51.258;4.436;2022-08-04T08:26:37;12.05;;;3.30;;
10100;SDS011;5090;51.258;4.436;2022-08-04T08:29:06;12.13;;;3.53;;
10100;SDS011;5090;51.258;4.436;2022-08-04T08:34:43;11.40;;;3.60;;
10100;SDS011;5090;51.258;4.436;2022-08-04T08:37:17;12.40;;;3.90;;
10100;SDS011;5090;51.258;4.436;2022-08-04T08:39:45;11.35;;;3.90;;
10100;SDS011;5090;51.258;4.436;2022-08-04T08:42:23;6.32;;;3.33;;
10100;SDS011;5090;51.258;4.436;2022-08-04T08:45:55;16.62;;;3.78;;
10100;SDS011;5090;51.258;4.436;2022-08-04T08:47:34;10.82;;;3.33;;
10100;SDS011;5090;51.258;4.436;2022-08-04T08:50:03;7.87;;;2.90;;
10100;SDS011;5090;51.258;4.436;2022-08-04T08:52:36;7.35;;;3.80;;
10100;SDS011;5090;51.258;4.436;2022-08-04T08:55:10;8.13;;;4.15;;
10100;SDS011;5090;51.258;4.436;2022-08-04T09:00:25;5.35;;;3.53;;
10100;SDS011;5090;51.258;4.436;2022-08-04T09:02:59;8.73;;;3.95;;
10100;SDS011;5090;51.258;4.436;2022-08-04T09:05:28;6.65;;;4.28;;
10100;SDS011;5090;51.258;4.436;2022-08-04T09:10:43;9.80;;;4.32;;
10100;SDS011;5090;51.258;4.436;2022-08-04T09:13:15;13.75;;;4.72;;
10100;SDS011;5090;51.258;4.436;2022-08-04T09:18:45;9.05;;;4.15;;
10100;SDS011;5090;51.258;4.436;2022-08-04T09:21:12;8.75;;;4.00;;
10100;SDS011;5090;51.258;4.436;2022-08-04T09:23:45;9.77;;;3.90;;
10100;SDS011;5090;51.258;4.436;2022-08-04T09:28:55;6.28;;;3.92;;
10100;SDS011;5090;51.258;4.436;2022-08-04T09:31:32;7.57;;;3.78;;
10100;SDS011;5090;51.258;4.436;2022-08-04T09:34:17;10.73;;;3.97;;
10100;SDS011;5090;51.258;4.436;2022-08-04T09:36:45;9.73;;;3.45;;
10100;SDS011;5090;51.258;4.436;2022-08-04T09:39:21;5.80;;;4.00;;
10100;SDS011;5090;51.258;4.436;2022-08-04T09:41:58;7.37;;;4.00;;
10100;SDS011;5090;51.258;4.436;2022-08-04T09:47:04;6.82;;;3.80;;
10100;SDS011;5090;51.258;4.436;2022-08-04T09:54:50;13.90;;;4.62;;
10100;SDS011;5090;51.258;4.436;2022-08-04T09:59:55;10.43;;;4.35;;
10100;SDS011;5090;51.258;4.436;2022-08-04T10:02:20;7.85;;;4.20;;
10100;SDS011;5090;51.258;4.436;2022-08-04T10:04:49;11.55;;;4.22;;
10100;SDS011;5090;51.258;4.436;2022-08-04T10:07:22;10.13;;;4.37;;
10100;SDS011;5090;51.258;4.436;2022-08-04T10:10:58;9.93;;;4.53;;
10100;SDS011;5090;51.258;4.436;2022-08-04T10:18:09;8.82;;;4.30;;
10100;SDS011;5090;51.258;4.436;2022-08-04T10:21:10;7.37;;;3.85;;
10100;SDS011;5090;51.258;4.436;2022-08-04T10:26:19;10.27;;;3.55;;
10100;SDS011;5090;51.258;4.436;2022-08-04T10:28:50;9.25;;;4.03;;
10100;SDS011;5090;51.258;4.436;2022-08-04T10:31:20;10.70;;;3.50;;
10100;SDS011;5090;51.258;4.436;2022-08-04T10:33:49;5.28;;;3.33;;
10100;SDS011;5090;51.258;4.436;2022-08-04T10:36:18;5.57;;;3.22;;
10100;SDS011;5090;51.258;4.436;2022-08-04T10:38:52;6.53;;;3.10;;
10100;SDS011;5090;51.258;4.436;2022-08-04T10:41:22;7.70;;;2.92;;
10100;SDS011;5090;51.258;4.436;2022-08-04T10:44:08;7.22;;;2.70;;
10100;SDS011;5090;51.258;4.436;2022-08-04T10:46:36;9.45;;;2.42;;
10100;SDS011;5090;51.258;4.436;2022-08-04T10:49:06;5.35;;;2.55;;
10100;SDS011;5090;51.258;4.436;2022-08-04T10:51:37;4.53;;;2.20;;
10100;SDS011;5090;51.258;4.436;2022-08-04T10:54:05;9.77;;;2.30;;
10100;SDS011;5090;51.258;4.436;2022-08-04T10:56:37;4.60;;;2.03;;
10100;SDS011;5090;51.258;4.436;2022-08-04T10:59:06;4.57;;;2.83;;
10100;SDS011;5090;51.258;4.436;2022-08-04T11:01:32;6.45;;;2.25;;
10100;SDS011;5090;51.258;4.436;2022-08-04T11:04:03;5.90;;;2.72;;
10100;SDS011;5090;51.258;4.436;2022-08-04T11:06:29;3.40;;;2.08;;
10100;SDS011;5090;51.258;4.436;2022-08-04T11:08:58;7.55;;;2.37;;
10100;SDS011;5090;51.258;4.436;2022-08-04T11:11:31;3.30;;;2.05;;
10100;SDS011;5090;51.258;4.436;2022-08-04T11:14:02;5.93;;;2.10;;
10100;SDS011;5090;51.258;4.436;2022-08-04T11:16:35;3.20;;;1.77;;
10100;SDS011;5090;51.258;4.436;2022-08-04T11:19:06;5.37;;;1.60;;
10100;SDS011;5090;51.258;4.436;2022-08-04T11:21:33;6.50;;;2.37;;
10100;SDS011;5090;51.258;4.436;2022-08-04T11:24:02;7.15;;;2.15;;
10100;SDS011;5090;51.258;4.436;2022-08-04T11:32:03;6.40;;;2.42;;
10100;SDS011;5090;51.258;4.436;2022-08-04T11:34:31;6.82;;;2.47;;
10100;SDS011;5090;51.258;4.436;2022-08-04T11:39:35;4.82;;;2.00;;
10100;SDS011;5090;51.258;4.436;2022-08-04T11:42:19;5.60;;;2.37;;
10100;SDS011;5090;51.258;4.436;2022-08-04T11:44:50;21.25;;;2.50;;
10100;SDS011;5090;51.258;4.436;2022-08-04T11:47:19;3.92;;;2.00;;
10100;SDS011;5090;51.258;4.436;2022-08-04T11:49:48;3.47;;;1.95;;
10100;SDS011;5090;51.258;4.436;2022-08-04T11:52:15;5.60;;;2.28;;
10100;SDS011;5090;51.258;4.436;2022-08-04T11:54:44;8.02;;;2.62;;
10100;SDS011;5090;51.258;4.436;2022-08-04T11:57:13;5.35;;;2.45;;
10100;SDS011;5090;51.258;4.436;2022-08-04T11:59:42;8.57;;;2.42;;
10100;SDS011;5090;51.258;4.436;2022-08-04T12:04:57;6.55;;;2.22;;
10100;SDS011;5090;51.258;4.436;2022-08-04T12:10:10;6.62;;;2.97;;
10100;SDS011;5090;51.258;4.436;2022-08-04T12:15:19;10.20;;;2.80;;
10100;SDS011;5090;51.258;4.436;2022-08-04T12:18:09;8.05;;;3.08;;
10100;SDS011;5090;51.258;4.436;2022-08-04T12:20:41;5.85;;;2.37;;
10100;SDS011;5090;51.258;4.436;2022-08-04T12:23:11;7.00;;;2.15;;
10100;SDS011;5090;51.258;4.436;2022-08-04T12:25:37;4.25;;;1.92;;
10100;SDS011;5090;51.258;4.436;2022-08-04T12:28:07;6.90;;;2.03;;
10100;SDS011;5090;51.258;4.436;2022-08-04T12:30:34;7.37;;;2.05;;
10100;SDS011;5090;51.258;4.436;2022-08-04T12:33:04;8.35;;;2.30;;
10100;SDS011;5090;51.258;4.436;2022-08-04T12:35:35;6.57;;;2.20;;
10100;SDS011;5090;51.258;4.436;2022-08-04T12:38:04;6.50;;;2.15;;
10100;SDS011;5090;51.258;4.436;2022-08-04T12:40:37;9.07;;;2.00;;
10100;SDS011;5090;51.258;4.436;2022-08-04T12:43:02;6.22;;;1.80;;
10100;SDS011;5090;51.258;4.436;2022-08-04T12:45:29;9.80;;;3.08;;
10100;SDS011;5090;51.258;4.436;2022-08-04T12:47:57;37.70;;;5.53;;
10100;SDS011;5090;51.258;4.436;2022-08-04T12:50:25;11.45;;;2.58;;
10100;SDS011;5090;51.258;4.436;2022-08-04T12:52:54;7.28;;;2.15;;
10100;SDS011;5090;51.258;4.436;2022-08-04T12:55:23;17.67;;;3.08;;
10100;SDS011;5090;51.258;4.436;2022-08-04T12:57:51;4.32;;;1.60;;
10100;SDS011;5090;51.258;4.436;2022-08-04T13:00:26;4.55;;;1.90;;
10100;SDS011;5090;51.258;4.436;2022-08-04T13:02:53;15.48;;;2.67;;
10100;SDS011;5090;51.258;4.436;2022-08-04T13:05:21;13.65;;;2.37;;
10100;SDS011;5090;51.258;4.436;2022-08-04T13:07:49;5.80;;;1.67;;
10100;SDS011;5090;51.258;4.436;2022-08-04T13:10:19;12.82;;;2.30;;
10100;SDS011;5090;51.258;4.436;2022-08-04T13:12:51;12.82;;;2.05;;
10100;SDS011;5090;51.258;4.436;2022-08-04T13:15:20;11.27;;;2.20;;
10100;SDS011;5090;51.258;4.436;2022-08-04T13:17:50;4.80;;;1.30;;
10100;SDS011;5090;51.258;4.436;2022-08-04T13:20:23;6.50;;;1.70;;
10100;SDS011;5090;51.258;4.436;2022-08-04T13:22:48;10.65;;;1.87;;
10100;SDS011;5090;51.258;4.436;2022-08-04T13:25:16;11.25;;;1.95;;
10100;SDS011;5090;51.258;4.436;2022-08-04T13:27:45;1.98;;;1.12;;
10100;SDS011;5090;51.258;4.436;2022-08-04T13:30:16;10.95;;;1.83;;
10100;SDS011;5090;51.258;4.436;2022-08-04T13:32:41;5.30;;;1.30;;
10100;SDS011;5090;51.258;4.436;2022-08-04T13:35:09;16.33;;;2.37;;
10100;SDS011;5090;51.258;4.436;2022-08-04T13:37:38;4.87;;;1.42;;
10100;SDS011;5090;51.258;4.436;2022-08-04T13:40:08;2.85;;;1.30;;
10100;SDS011;5090;51.258;4.436;2022-08-04T13:42:35;6.15;;;1.62;;
10100;SDS011;5090;51.258;4.436;2022-08-04T13:45:03;9.25;;;2.20;;
10100;SDS011;5090;51.258;4.436;2022-08-04T13:47:32;2.58;;;1.20;;
10100;SDS011;5090;51.258;4.436;2022-08-04T13:50:05;5.70;;;1.33;;
10100;SDS011;5090;51.258;4.436;2022-08-04T13:52:33;8.98;;;1.75;;
10100;SDS011;5090;51.258;4.436;2022-08-04T13:55:01;10.07;;;1.60;;
10100;SDS011;5090;51.258;4.436;2022-08-04T13:57:35;10.73;;;2.10;;
10100;SDS011;5090;51.258;4.436;2022-08-04T14:03:04;5.43;;;2.42;;
10100;SDS011;5090;51.258;4.436;2022-08-04T14:05:33;8.80;;;2.00;;
10100;SDS011;5090;51.258;4.436;2022-08-04T14:08:10;4.40;;;1.60;;
10100;SDS011;5090;51.258;4.436;2022-08-04T14:10:36;5.65;;;1.85;;
10100;SDS011;5090;51.258;4.436;2022-08-04T14:13:04;5.20;;;1.62;;
10100;SDS011;5090;51.258;4.436;2022-08-04T14:15:36;5.37;;;1.90;;
10100;SDS011;5090;51.258;4.436;2022-08-04T14:20:37;3.80;;;1.87;;
10100;SDS011;5090;51.258;4.436;2022-08-04T14:23:05;5.90;;;1.87;;
10100;SDS011;5090;51.258;4.436;2022-08-04T14:25:33;4.87;;;1.77;;
10100;SDS011;5090;51.258;4.436;2022-08-04T14:28:01;3.87;;;1.75;;
10100;SDS011;5090;51.258;4.436;2022-08-04T14:30:32;6.55;;;1.80;;
10100;SDS011;5090;51.258;4.436;2022-08-04T14:33:01;4.62;;;1.73;;
10100;SDS011;5090;51.258;4.436;2022-08-04T14:35:29;7.70;;;2.33;;
10100;SDS011;5090;51.258;4.436;2022-08-04T14:37:58;3.58;;;1.80;;
10100;SDS011;5090;51.258;4.436;2022-08-04T14:40:26;6.95;;;2.22;;
10100;SDS011;5090;51.258;4.436;2022-08-04T14:42:54;4.82;;;2.08;;
10100;SDS011;5090;51.258;4.436;2022-08-04T14:45:26;6.57;;;2.30;;
10100;SDS011;5090;51.258;4.436;2022-08-04T14:47:54;9.93;;;2.83;;
10100;SDS011;5090;51.258;4.436;2022-08-04T14:53:12;4.90;;;1.95;;
10100;SDS011;5090;51.258;4.436;2022-08-04T14:55:41;3.83;;;2.20;;
10100;SDS011;5090;51.258;4.436;2022-08-04T15:00:42;5.12;;;1.85;;
10100;SDS011;5090;51.258;4.436;2022-08-04T15:03:11;7.50;;;2.20;;
10100;SDS011;5090;51.258;4.436;2022-08-04T15:05:40;5.68;;;1.77;;
10100;SDS011;5090;51.258;4.436;2022-08-04T15:08:08;5.62;;;1.87;;
10100;SDS011;5090;51.258;4.436;2022-08-04T15:10:35;6.28;;;2.08;;
10100;SDS011;5090;51.258;4.436;2022-08-04T15:13:05;11.88;;;3.37;;
10100;SDS011;5090;51.258;4.436;2022-08-04T15:15:32;11.15;;;3.20;;
10100;SDS011;5090;51.258;4.436;2022-08-04T15:18:00;4.30;;;1.75;;
10100;SDS011;5090;51.258;4.436;2022-08-04T15:20:28;4.05;;;2.00;;
10100;SDS011;5090;51.258;4.436;2022-08-04T15:22:56;3.80;;;2.33;;
10100;SDS011;5090;51.258;4.436;2022-08-04T15:25:25;4.93;;;2.12;;
10100;SDS011;5090;51.258;4.436;2022-08-04T15:27:53;4.57;;;1.80;;
10100;SDS011;5090;51.258;4.436;2022-08-04T15:30:22;4.82;;;1.85;;
10100;SDS011;5090;51.258;4.436;2022-08-04T15:32:50;3.30;;;1.95;;
10100;SDS011;5090;51.258;4.436;2022-08-04T15:35:19;5.32;;;1.75;;
10100;SDS011;5090;51.258;4.436;2022-08-04T15:45:50;6.07;;;1.45;;
10100;SDS011;5090;51.258;4.436;2022-08-04T15:48:22;3.62;;;1.37;;
10100;SDS011;5090;51.258;4.436;2022-08-04T15:51:02;2.75;;;1.33;;
10100;SDS011;5090;51.258;4.436;2022-08-04T15:58:50;2.95;;;1.55;;
10100;SDS011;5090;51.258;4.436;2022-08-04T16:01:18;5.57;;;2.08;;
10100;SDS011;5090;51.258;4.436;2022-08-04T16:03:48;4.18;;;1.62;;
10100;SDS011;5090;51.258;4.436;2022-08-04T16:08:59;7.40;;;1.80;;
10100;SDS011;5090;51.258;4.436;2022-08-04T16:11:35;4.82;;;2.03;;
10100;SDS011;5090;51.258;4.436;2022-08-04T16:14:08;3.47;;;1.45;;
10100;SDS011;5090;51.258;4.436;2022-08-04T16:19:24;2.45;;;1.75;;
10100;SDS011;5090;51.258;4.436;2022-08-04T16:21:52;4.82;;;1.95;;
10100;SDS011;5090;51.258;4.436;2022-08-04T16:24:20;4.35;;;2.00;;
10100;SDS011;5090;51.258;4.436;2022-08-04T16:26:49;5.62;;;2.10;;
10100;SDS011;5090;51.258;4.436;2022-08-04T16:29:25;4.57;;;1.90;;
10100;SDS011;5090;51.258;4.436;2022-08-04T16:34:32;5.75;;;1.67;;
10100;SDS011;5090;51.258;4.436;2022-08-04T16:37:01;7.45;;;2.22;;
10100;SDS011;5090;51.258;4.436;2022-08-04T16:39:29;5.25;;;1.77;;
10100;SDS011;5090;51.258;4.436;2022-08-04T16:41:57;5.80;;;1.90;;
10100;SDS011;5090;51.258;4.436;2022-08-04T16:44:29;5.75;;;1.65;;
10100;SDS011;5090;51.258;4.436;2022-08-04T16:46:59;5.28;;;1.92;;
10100;SDS011;5090;51.258;4.436;2022-08-04T16:49:27;7.75;;;2.08;;
10100;SDS011;5090;51.258;4.436;2022-08-04T16:51:59;6.35;;;1.67;;
10100;SDS011;5090;51.258;4.436;2022-08-04T16:54:28;3.17;;;1.80;;
10100;SDS011;5090;51.258;4.436;2022-08-04T16:56:56;5.25;;;1.62;;
10100;SDS011;5090;51.258;4.436;2022-08-04T16:59:24;3.58;;;1.37;;
10100;SDS011;5090;51.258;4.436;2022-08-04T17:01:53;5.97;;;1.50;;
10100;SDS011;5090;51.258;4.436;2022-08-04T17:04:27;7.90;;;1.83;;
10100;SDS011;5090;51.258;4.436;2022-08-04T17:06:57;6.78;;;1.83;;
10100;SDS011;5090;51.258;4.436;2022-08-04T17:09:23;2.15;;;1.20;;
10100;SDS011;5090;51.258;4.436;2022-08-04T17:11:51;4.22;;;1.60;;
10100;SDS011;5090;51.258;4.436;2022-08-04T17:14:21;5.07;;;1.75;;
10100;SDS011;5090;51.258;4.436;2022-08-04T17:16:48;6.15;;;1.62;;
10100;SDS011;5090;51.258;4.436;2022-08-04T17:19:16;3.87;;;1.77;;